createdAt,value
2023-05-09T00:00:17.883Z,11.66
2023-05-09T00:05:22.529Z,12.54
2023-05-09T00:10:25.817Z,12.92
2023-05-09T00:15:29.740Z,12.43
2023-05-09T00:20:34.939Z,12.93
2023-05-09T00:25:48.267Z,12.37
2023-05-09T00:30:52.171Z,12.27
2023-05-09T00:35:55.902Z,12.15
2023-05-09T00:41:00.839Z,12.08
2023-05-09T00:46:03.624Z,12.42
2023-05-09T00:51:09.165Z,12.59
2023-05-09T00:56:13.718Z,12.90
2023-05-09T01:01:17.867Z,12.54
2023-05-09T01:06:34.049Z,12.75
2023-05-09T01:12:05.149Z,12.79
2023-05-09T01:17:24.199Z,12.69
2023-05-09T01:22:32.895Z,13.04
2023-05-09T01:27:48.207Z,11.71
2023-05-09T01:32:52.712Z,12.71
2023-05-09T01:37:56.211Z,12.63
2023-05-09T01:43:02.786Z,11.46
2023-05-09T01:48:08.158Z,12.79
2023-05-09T01:53:13.297Z,12.72
2023-05-09T01:58:18.352Z,12.74
2023-05-09T02:03:22.814Z,11.61
2023-05-09T02:08:26.506Z,12.62
2023-05-09T02:13:29.311Z,11.62
2023-05-09T02:18:42.840Z,12.53
2023-05-09T02:23:45.487Z,12.18
2023-05-09T02:28:48.595Z,12.59
2023-05-09T02:33:53.668Z,12.34
2023-05-09T02:38:56.772Z,10.90
2023-05-09T02:43:59.314Z,12.64
2023-05-09T02:49:01.913Z,12.49
2023-05-09T02:54:04.712Z,10.80
2023-05-09T02:59:08.520Z,11.86
2023-05-09T03:04:21.063Z,11.72
2023-05-09T03:09:24.924Z,12.43
2023-05-09T03:14:37.506Z,12.02
2023-05-09T03:19:40.101Z,12.11
2023-05-09T03:24:43.023Z,11.13
2023-05-09T03:29:45.647Z,12.74
2023-05-09T03:34:58.359Z,12.74
2023-05-09T03:40:00.918Z,11.77
2023-05-09T03:45:03.717Z,12.65
2023-05-09T03:50:07.125Z,12.19
2023-05-09T03:55:10.595Z,11.53
2023-05-09T04:00:13.529Z,10.97
2023-05-09T04:05:18.195Z,12.67
2023-05-09T04:10:20.847Z,12.52
2023-05-09T04:15:26.829Z,11.43
2023-05-09T04:20:30.295Z,11.33
2023-05-09T04:25:43.663Z,11.37
2023-05-09T04:30:46.820Z,11.50
2023-05-09T04:35:49.641Z,10.87
2023-05-09T04:40:52.720Z,11.76
2023-05-09T04:45:55.286Z,11.81
2023-05-09T04:50:58.210Z,10.64
2023-05-09T04:56:00.952Z,10.52
2023-05-09T05:01:03.700Z,12.11
2023-05-09T05:06:07.462Z,12.07
2023-05-09T05:11:10.562Z,11.39
2023-05-09T05:16:17.839Z,11.66
2023-05-09T05:21:20.673Z,11.79
2023-05-09T05:26:24.032Z,11.88
2023-05-09T05:31:26.631Z,11.19
2023-05-09T05:36:30.077Z,11.39
2023-05-09T05:41:32.865Z,10.92
2023-05-09T05:46:35.782Z,11.70
2023-05-09T05:51:39.490Z,12.17
2023-05-09T05:56:42.161Z,12.53
2023-05-09T06:01:45.958Z,10.98
2023-05-09T06:06:49.349Z,12.70
2023-05-09T06:11:53.182Z,12.72
2023-05-09T06:16:56.431Z,11.91
2023-05-09T06:21:59.331Z,12.20
2023-05-09T06:27:02.061Z,12.73
2023-05-09T06:32:04.956Z,12.99
2023-05-09T06:37:07.631Z,13.22
2023-05-09T06:42:11.151Z,12.69
2023-05-09T06:47:13.940Z,12.41
2023-05-09T06:52:17.238Z,11.85
2023-05-09T06:57:20.192Z,12.94
2023-05-09T07:02:22.889Z,11.79
2023-05-09T07:07:25.483Z,12.62
2023-05-09T07:12:28.037Z,13.90
2023-05-09T07:17:31.112Z,12.46
2023-05-09T07:22:36.350Z,13.20
2023-05-09T07:27:39.856Z,14.34
2023-05-09T07:32:42.471Z,14.34
2023-05-09T07:37:45.554Z,14.52
2023-05-09T07:42:58.150Z,13.63
2023-05-09T07:48:01.049Z,13.92
2023-05-09T07:53:03.863Z,14.61
2023-05-09T07:58:06.507Z,15.42
2023-05-09T08:03:09.705Z,14.55
2023-05-09T08:08:12.527Z,14.05
2023-05-09T08:13:25.257Z,14.90
2023-05-09T08:18:28.493Z,15.25
2023-05-09T08:23:31.338Z,14.70
2023-05-09T08:28:34.301Z,14.84
2023-05-09T08:33:41.880Z,14.81
2023-05-09T08:38:45.870Z,16.51
2023-05-09T08:43:49.830Z,15.32
2023-05-09T08:48:53.630Z,15.02
2023-05-09T08:53:56.351Z,16.50
2023-05-09T08:58:59.981Z,15.44
2023-05-09T09:04:06.489Z,17.23
2023-05-09T09:09:11.131Z,18.64
2023-05-09T09:14:21.368Z,17.64
2023-05-09T09:19:31.001Z,18.54
2023-05-09T09:24:35.425Z,17.58
2023-05-09T09:29:39.769Z,15.73
2023-05-09T09:34:52.294Z,16.70
2023-05-09T09:39:56.608Z,18.30
2023-05-09T09:45:11.477Z,17.90
2023-05-09T09:50:19.740Z,18.36
2023-05-09T09:55:23.704Z,18.53
2023-05-09T10:00:28.583Z,17.83
2023-05-09T10:05:32.277Z,17.54
2023-05-09T10:10:44.795Z,16.88
2023-05-09T10:15:53.625Z,17.18
2023-05-09T10:21:01.591Z,17.30
2023-05-09T10:26:12.358Z,16.10
2023-05-09T10:31:27.771Z,17.98
2023-05-09T10:36:32.032Z,18.32
2023-05-09T10:41:34.975Z,18.00
2023-05-09T10:46:38.265Z,17.24
2023-05-09T10:51:51.682Z,18.19
2023-05-09T10:56:54.848Z,18.63
2023-05-09T11:02:15.716Z,18.13
2023-05-09T11:07:25.446Z,18.74
2023-05-09T11:12:28.128Z,18.22
2023-05-09T11:17:33.252Z,18.50
2023-05-09T11:22:47.889Z,18.87
2023-05-09T11:27:51.035Z,17.04
2023-05-09T11:32:56.450Z,18.51
2023-05-09T11:38:07.076Z,18.50
2023-05-09T11:43:10.226Z,18.52
2023-05-09T11:48:12.797Z,18.28
2023-05-09T11:53:15.430Z,18.21
2023-05-09T11:58:18.199Z,17.55
2023-05-09T12:03:20.916Z,18.55
2023-05-09T12:08:25.792Z,17.82
2023-05-09T12:13:46.029Z,17.82
2023-05-09T12:18:52.535Z,19.01
2023-05-09T12:23:56.811Z,18.64
2023-05-09T12:28:59.658Z,19.38
2023-05-09T12:34:02.577Z,19.45
2023-05-09T12:39:15.423Z,19.38
2023-05-09T12:44:29.009Z,18.94
2023-05-09T12:49:32.988Z,19.34
2023-05-09T12:54:48.580Z,19.27
2023-05-09T12:59:51.761Z,19.51
2023-05-09T13:05:07.653Z,18.87
2023-05-09T13:10:24.506Z,18.41
2023-05-09T13:15:27.576Z,19.31
2023-05-09T13:20:31.036Z,19.64
2023-05-09T13:25:33.975Z,19.35
2023-05-09T13:30:36.699Z,18.15
2023-05-09T13:35:39.442Z,19.16
2023-05-09T13:40:47.477Z,18.98
2023-05-09T13:45:50.130Z,19.09
2023-05-09T13:50:52.995Z,19.28
2023-05-09T13:55:56.469Z,17.93
2023-05-09T14:00:59.135Z,19.82
2023-05-09T14:06:05.580Z,19.61
2023-05-09T14:11:10.109Z,18.49
2023-05-09T14:16:12.686Z,19.38
2023-05-09T14:21:16.337Z,19.59
2023-05-09T14:26:20.374Z,19.33
2023-05-09T14:31:23.146Z,19.27
2023-05-09T14:36:25.773Z,19.92
2023-05-09T14:41:28.291Z,20.33
2023-05-09T14:46:31.095Z,19.97
2023-05-09T14:51:34.279Z,20.21
2023-05-09T14:56:36.833Z,19.98
2023-05-09T15:01:39.762Z,19.31
2023-05-09T15:06:42.355Z,19.44
2023-05-09T15:11:48.843Z,18.81
2023-05-09T15:16:53.087Z,18.92
2023-05-09T15:21:55.641Z,19.34
2023-05-09T15:26:58.139Z,19.14
2023-05-09T15:32:01.906Z,20.31
2023-05-09T15:37:04.726Z,18.75
2023-05-09T15:42:18.455Z,19.87
2023-05-09T15:47:31.276Z,19.71
2023-05-09T15:52:34.266Z,18.00
2023-05-09T15:57:49.005Z,19.65
2023-05-09T16:02:52.163Z,19.81
2023-05-09T16:07:54.945Z,18.90
2023-05-09T16:12:57.703Z,17.98
2023-05-09T16:18:00.266Z,19.26
2023-05-09T16:23:02.803Z,19.28
2023-05-09T16:28:09.353Z,19.46
2023-05-09T16:33:19.976Z,19.33
2023-05-09T16:38:22.518Z,19.59
2023-05-09T16:43:25.190Z,19.80
2023-05-09T16:48:27.835Z,19.35
2023-05-09T16:53:30.442Z,18.57
2023-05-09T16:58:45.220Z,18.96
2023-05-09T17:03:49.264Z,17.76
2023-05-09T17:08:51.893Z,18.83
2023-05-09T17:13:55.065Z,18.36
2023-05-09T17:18:58.947Z,18.55
2023-05-09T17:24:02.875Z,17.97
2023-05-09T17:29:06.264Z,19.79
2023-05-09T17:34:18.878Z,17.85
2023-05-09T17:39:21.735Z,19.26
2023-05-09T17:44:25.082Z,17.20
2023-05-09T17:49:31.492Z,17.46
2023-05-09T17:54:34.070Z,17.48
2023-05-09T17:59:39.952Z,17.24
2023-05-09T18:04:45.561Z,16.75
2023-05-09T18:09:59.709Z,16.48
2023-05-09T18:15:03.022Z,16.10
2023-05-09T18:20:07.550Z,15.28
2023-05-09T18:25:10.656Z,15.13
2023-05-09T18:30:13.793Z,13.62
2023-05-09T18:35:16.884Z,14.96
2023-05-09T18:40:19.817Z,14.97
2023-05-09T18:45:22.397Z,13.95
2023-05-09T18:50:25.239Z,14.73
2023-05-09T18:55:27.790Z,14.07
2023-05-09T19:00:30.385Z,14.67
2023-05-09T19:05:32.999Z,14.53
2023-05-09T19:10:38.703Z,14.21
2023-05-09T19:15:51.286Z,13.42
2023-05-09T19:20:54.297Z,13.27
2023-05-09T19:26:06.815Z,13.38
2023-05-09T19:31:26.241Z,13.01
2023-05-09T19:36:28.980Z,13.11
2023-05-09T19:41:34.340Z,12.92
2023-05-09T19:46:38.926Z,11.58
2023-05-09T19:51:51.722Z,11.51
2023-05-09T19:56:54.375Z,13.04
2023-05-09T20:02:00.423Z,13.44
2023-05-09T20:07:03.880Z,13.44
2023-05-09T20:12:06.816Z,12.01
2023-05-09T20:17:09.424Z,12.50
2023-05-09T20:22:12.188Z,13.16
2023-05-09T20:27:14.776Z,13.16
2023-05-09T20:32:20.561Z,12.35
2023-05-09T20:37:23.125Z,13.21
2023-05-09T20:42:26.690Z,13.00
2023-05-09T20:47:29.217Z,11.59
2023-05-09T20:52:31.949Z,13.05
2023-05-09T20:57:34.636Z,11.99
2023-05-09T21:02:37.277Z,12.44
2023-05-09T21:07:39.875Z,10.96
2023-05-09T21:12:42.688Z,12.89
2023-05-09T21:17:45.529Z,12.28
2023-05-09T21:22:48.342Z,11.75
2023-05-09T21:27:51.273Z,12.48
2023-05-09T21:32:54.147Z,11.15
2023-05-09T21:37:57.045Z,11.03
2023-05-09T21:42:59.823Z,12.26
2023-05-09T21:48:02.496Z,12.31
2023-05-09T21:53:05.977Z,12.04
2023-05-09T21:58:08.912Z,12.04
2023-05-09T22:03:11.863Z,12.55
2023-05-09T22:08:14.852Z,11.92
2023-05-09T22:13:17.742Z,11.82
2023-05-09T22:18:20.328Z,10.76
2023-05-09T22:23:23.421Z,11.42
2023-05-09T22:28:36.147Z,12.30
2023-05-09T22:33:46.449Z,12.01
2023-05-09T22:38:48.960Z,10.06
2023-05-09T22:43:52.089Z,12.13
2023-05-09T22:49:00.989Z,12.31
2023-05-09T22:54:03.611Z,12.38
2023-05-09T22:59:07.256Z,11.68
2023-05-09T23:04:10.124Z,12.00
2023-05-09T23:09:12.860Z,11.95
2023-05-09T23:14:15.605Z,11.27
2023-05-09T23:19:18.099Z,11.34
2023-05-09T23:24:20.875Z,10.37
2023-05-09T23:29:23.682Z,10.19
2023-05-09T23:34:29.465Z,10.03
2023-05-09T23:39:32.752Z,10.38
2023-05-09T23:44:35.482Z,10.35
2023-05-09T23:49:38.078Z,10.76
2023-05-09T23:54:40.891Z,10.71
2023-05-09T23:59:43.687Z,10.08
